Time;durP1;ratioP1;P1;durP2;ratioP2;P2;SDS_P1;SDS_P2;PMS_P1;PMS_P2;Temp;Humidity;BMP_temperature;BMP_pressure;BME280_temperature;BME280_humidity;BME280_pressure;Samples;Min_cycle;Max_cycle;Signal;HPM_P1;HPM_P2
2024/01/31 00:00:28;;;;;;;2.30;0.95;;;7.30;99.90;;;;;;4998385;28;20204;-84
2024/01/31 00:02:55;;;;;;;3.65;3.35;;;7.30;99.90;;;;;;4997510;28;20220;-84
2024/01/31 00:05:22;;;;;;;0.50;0.40;;;7.30;99.90;;;;;;4998476;28;20199;-84
2024/01/31 00:07:49;;;;;;;0.60;0.60;;;7.20;99.90;;;;;;4999368;28;20197;-82
2024/01/31 00:10:17;;;;;;;1.67;1.58;;;7.20;99.90;;;;;;4998128;28;20201;-84
2024/01/31 00:12:44;;;;;;;0.50;0.40;;;7.20;99.90;;;;;;4997363;28;20217;-84
2024/01/31 00:15:10;;;;;;;0.50;0.40;;;7.20;99.90;;;;;;4997795;28;20202;-83
2024/01/31 00:17:37;;;;;;;0.50;0.40;;;7.20;99.90;;;;;;4997630;28;20208;-84
2024/01/31 00:20:05;;;;;;;0.50;0.50;;;7.20;99.90;;;;;;4997739;28;20197;-84
2024/01/31 00:22:31;;;;;;;2.03;1.83;;;7.20;99.90;;;;;;4997473;28;20225;-84
2024/01/31 00:24:58;;;;;;;0.77;0.77;;;7.20;99.90;;;;;;4990154;28;20193;-84
2024/01/31 00:27:26;;;;;;;0.50;0.47;;;7.10;99.90;;;;;;4997719;28;20576;-84
2024/01/31 00:29:53;;;;;;;0.50;0.40;;;7.10;99.90;;;;;;4997543;28;20205;-84
2024/01/31 00:32:20;;;;;;;1.67;1.58;;;7.10;99.90;;;;;;4997225;28;20209;-84
2024/01/31 00:34:46;;;;;;;0.50;0.40;;;7.10;99.90;;;;;;4997482;28;20209;-83
2024/01/31 00:37:13;;;;;;;0.50;0.40;;;7.10;99.90;;;;;;4997585;28;20193;-84
2024/01/31 00:39:41;;;;;;;0.50;0.40;;;7.10;99.90;;;;;;4996515;28;20193;-84
2024/01/31 00:42:08;;;;;;;0.63;0.63;;;7.10;99.90;;;;;;4996357;28;20723;-84
2024/01/31 00:44:36;;;;;;;0.50;0.40;;;7.10;99.90;;;;;;4996832;28;20197;-83
2024/01/31 00:47:03;;;;;;;0.70;0.40;;;7.10;99.90;;;;;;4997793;28;20195;-84
2024/01/31 00:49:30;;;;;;;0.50;0.40;;;7.10;99.90;;;;;;4997386;28;20193;-84
2024/01/31 00:51:56;;;;;;;0.95;0.85;;;7.10;99.90;;;;;;4997111;28;20561;-84
2024/01/31 00:54:24;;;;;;;0.50;0.40;;;7.00;99.90;;;;;;4997238;28;20201;-84
2024/01/31 00:56:50;;;;;;;0.50;0.40;;;7.00;99.90;;;;;;4996903;28;20205;-84
2024/01/31 00:59:17;;;;;;;0.50;0.40;;;7.00;99.90;;;;;;4997281;28;20209;-84
2024/01/31 01:01:45;;;;;;;0.90;0.90;;;7.00;99.90;;;;;;4996770;28;20221;-84
2024/01/31 01:04:12;;;;;;;0.50;0.40;;;7.00;99.90;;;;;;4996609;28;20205;-83
2024/01/31 01:06:40;;;;;;;0.50;0.40;;;7.00;99.90;;;;;;4996251;28;20204;-84
2024/01/31 01:09:07;;;;;;;0.73;0.70;;;7.00;99.90;;;;;;4996437;28;20208;-83
2024/01/31 01:11:34;;;;;;;0.50;0.40;;;7.00;99.90;;;;;;4996880;28;20197;-84
2024/01/31 01:14:01;;;;;;;2.88;1.35;;;7.00;99.90;;;;;;4997121;28;20276;-84
2024/01/31 01:16:28;;;;;;;0.50;0.40;;;6.90;99.90;;;;;;4997258;28;20557;-84
2024/01/31 01:18:56;;;;;;;0.50;0.40;;;6.90;99.90;;;;;;4996696;28;20197;-84
2024/01/31 01:21:22;;;;;;;0.70;0.70;;;6.90;99.90;;;;;;4996506;28;20197;-84
2024/01/31 01:23:49;;;;;;;0.50;0.40;;;6.90;99.90;;;;;;4996138;28;20217;-83
2024/01/31 01:26:16;;;;;;;0.50;0.40;;;6.90;99.90;;;;;;4996656;28;20203;-84
2024/01/31 01:28:43;;;;;;;0.50;0.40;;;6.90;99.90;;;;;;4997330;28;20193;-83
2024/01/31 01:31:10;;;;;;;0.50;0.50;;;6.90;99.90;;;;;;4996825;28;20197;-78
2024/01/31 01:33:37;;;;;;;0.50;0.40;;;6.90;99.90;;;;;;4995970;28;20371;-83
2024/01/31 01:36:06;;;;;;;2.10;1.73;;;6.90;99.90;;;;;;4996748;28;20193;-84
2024/01/31 01:38:35;;;;;;;0.50;0.40;;;6.90;99.90;;;;;;4996145;28;20196;-84
2024/01/31 01:41:02;;;;;;;0.50;0.40;;;6.90;99.90;;;;;;4995681;28;20193;-84
2024/01/31 01:43:29;;;;;;;0.50;0.40;;;6.90;99.90;;;;;;4995904;28;20221;-84
2024/01/31 01:46:03;;;;;;;0.50;0.50;;;6.90;99.90;;;;;;4995745;28;20198;-84
2024/01/31 01:48:29;;;;;;;2.78;2.58;;;6.90;99.90;;;;;;4996180;28;20193;-83
2024/01/31 01:50:56;;;;;;;3.17;2.35;;;6.90;99.90;;;;;;4995423;28;20232;-84
2024/01/31 01:53:25;;;;;;;0.50;0.40;;;6.90;99.90;;;;;;4995511;28;20217;-83
2024/01/31 01:55:52;;;;;;;0.50;0.40;;;6.80;99.90;;;;;;4995340;28;20197;-83
2024/01/31 01:58:19;;;;;;;0.50;0.40;;;6.80;99.90;;;;;;4995182;28;20556;-84
2024/01/31 02:00:47;;;;;;;0.50;0.40;;;6.80;99.90;;;;;;4994847;28;20212;-82
2024/01/31 02:03:15;;;;;;;0.50;0.50;;;6.80;99.90;;;;;;4994808;28;20243;-83
2024/01/31 02:05:45;;;;;;;0.50;0.50;;;6.80;99.90;;;;;;4995145;28;20211;-83
2024/01/31 02:08:12;;;;;;;0.50;0.40;;;6.80;99.90;;;;;;4995120;28;20664;-83
2024/01/31 02:10:40;;;;;;;0.50;0.40;;;6.80;99.90;;;;;;4995238;28;20660;-84
2024/01/31 02:13:07;;;;;;;0.50;0.40;;;6.80;99.90;;;;;;4986625;28;20213;-84
2024/01/31 02:15:34;;;;;;;0.50;0.40;;;6.80;99.90;;;;;;4994579;28;20197;-82
2024/01/31 02:18:00;;;;;;;0.50;0.40;;;6.80;99.90;;;;;;4995296;28;20668;-83
2024/01/31 02:20:28;;;;;;;0.50;0.40;;;6.80;99.90;;;;;;4998998;28;20201;-84
2024/01/31 02:22:56;;;;;;;0.50;0.50;;;6.70;99.90;;;;;;4998757;28;20569;-84
2024/01/31 02:25:23;;;;;;;0.50;0.40;;;6.70;99.90;;;;;;4998522;28;20215;-84
2024/01/31 02:27:50;;;;;;;0.50;0.40;;;6.70;99.90;;;;;;4998957;28;20196;-82
2024/01/31 02:30:17;;;;;;;0.50;0.40;;;6.70;99.90;;;;;;4999184;28;20201;-84
2024/01/31 02:32:44;;;;;;;0.50;0.40;;;6.70;99.90;;;;;;4998796;28;20770;-82
2024/01/31 02:35:10;;;;;;;0.50;0.40;;;6.70;99.90;;;;;;4998840;28;20197;-84
2024/01/31 02:37:43;;;;;;;0.50;0.40;;;6.60;99.90;;;;;;4999488;28;20542;-83
2024/01/31 02:40:12;;;;;;;0.50;0.40;;;6.60;99.90;;;;;;4999112;28;20255;-83
2024/01/31 02:42:38;;;;;;;0.50;0.40;;;6.60;99.90;;;;;;4999119;28;20220;-83
2024/01/31 02:45:06;;;;;;;0.50;0.40;;;6.50;99.90;;;;;;4999333;28;20940;-83
2024/01/31 02:47:33;;;;;;;0.50;0.40;;;6.60;99.90;;;;;;4998853;28;20193;-83
2024/01/31 02:50:00;;;;;;;0.50;0.40;;;6.60;99.90;;;;;;4998831;28;20193;-84
2024/01/31 02:52:27;;;;;;;0.50;0.40;;;6.60;99.90;;;;;;5012322;28;20216;-84
2024/01/31 02:54:53;;;;;;;0.50;0.40;;;6.60;99.90;;;;;;5017651;28;20209;-83
2024/01/31 02:57:22;;;;;;;0.73;0.73;;;6.60;99.90;;;;;;5014052;28;20208;-83
2024/01/31 02:59:48;;;;;;;0.50;0.40;;;6.60;99.90;;;;;;4999281;28;20275;-84
2024/01/31 03:02:16;;;;;;;1.35;1.20;;;6.60;99.90;;;;;;5000576;28;20225;-81
2024/01/31 03:04:42;;;;;;;0.70;0.63;;;6.60;99.90;;;;;;5002637;28;20221;-84
2024/01/31 03:07:10;;;;;;;0.55;0.55;;;6.60;99.90;;;;;;4998909;28;20189;-83
2024/01/31 03:09:36;;;;;;;0.50;0.40;;;6.50;99.90;;;;;;4999212;28;20284;-84
2024/01/31 03:12:04;;;;;;;0.50;0.40;;;6.50;99.90;;;;;;4998429;28;20209;-83
2024/01/31 03:14:32;;;;;;;0.50;0.40;;;6.50;99.90;;;;;;4998904;28;20217;-84
2024/01/31 03:16:59;;;;;;;0.50;0.40;;;6.50;99.90;;;;;;4999137;28;20193;-83
2024/01/31 03:19:28;;;;;;;0.50;0.40;;;6.50;99.90;;;;;;4998041;28;20194;-81
2024/01/31 03:21:55;;;;;;;0.50;0.40;;;6.50;99.90;;;;;;4997260;28;20659;-82
2024/01/31 03:24:22;;;;;;;0.50;0.40;;;6.50;99.90;;;;;;4998069;28;20204;-82
2024/01/31 03:26:49;;;;;;;0.50;0.40;;;6.50;99.90;;;;;;4998660;28;20569;-80
2024/01/31 03:29:16;;;;;;;3.13;1.67;;;6.50;99.90;;;;;;4990523;28;20205;-83
2024/01/31 03:31:44;;;;;;;0.50;0.40;;;6.50;99.90;;;;;;4996600;28;20193;-83
2024/01/31 03:34:11;;;;;;;6.43;2.38;;;6.60;99.90;;;;;;4998115;28;20273;-83
2024/01/31 03:36:38;;;;;;;0.50;0.50;;;6.50;99.90;;;;;;4998851;28;20194;-83
2024/01/31 03:39:05;;;;;;;0.50;0.40;;;6.60;99.90;;;;;;4998866;28;20198;-83
2024/01/31 03:41:32;;;;;;;0.50;0.40;;;6.50;99.90;;;;;;4997799;28;20201;-83
2024/01/31 03:43:58;;;;;;;0.70;0.70;;;6.50;99.90;;;;;;4998337;28;20217;-82
2024/01/31 03:46:25;;;;;;;0.50;0.40;;;6.50;99.90;;;;;;4998553;28;20193;-83
2024/01/31 03:48:54;;;;;;;0.50;0.40;;;6.50;99.90;;;;;;4998339;28;20197;-79
2024/01/31 03:51:22;;;;;;;0.50;0.40;;;6.50;99.90;;;;;;4997616;28;20203;-82
2024/01/31 03:53:50;;;;;;;0.50;0.40;;;6.50;99.90;;;;;;4998355;28;20220;-82
2024/01/31 03:56:17;;;;;;;0.50;0.40;;;6.50;99.90;;;;;;4997669;28;20216;-82
2024/01/31 03:58:44;;;;;;;0.65;0.63;;;6.50;99.90;;;;;;4998249;28;20683;-82
2024/01/31 04:01:16;;;;;;;0.50;0.40;;;6.50;99.90;;;;;;4997173;28;20203;-78
2024/01/31 04:03:44;;;;;;;0.50;0.40;;;6.50;99.90;;;;;;4996795;28;20227;-82
2024/01/31 04:06:13;;;;;;;0.50;0.40;;;6.50;99.90;;;;;;4998136;28;20205;-82
2024/01/31 04:08:39;;;;;;;0.50;0.40;;;6.40;99.90;;;;;;4997365;28;20194;-83
2024/01/31 04:11:06;;;;;;;0.50;0.40;;;6.40;99.90;;;;;;4996687;28;20201;-77
2024/01/31 04:13:33;;;;;;;0.50;0.40;;;6.40;99.90;;;;;;4996167;28;20221;-82
2024/01/31 04:15:59;;;;;;;0.50;0.40;;;6.40;99.90;;;;;;4996635;28;20199;-81
2024/01/31 04:18:26;;;;;;;0.50;0.40;;;6.50;99.90;;;;;;4996940;28;20201;-81
2024/01/31 04:20:53;;;;;;;0.50;0.40;;;6.40;99.90;;;;;;4997259;28;20203;-81
2024/01/31 04:23:21;;;;;;;0.50;0.40;;;6.40;99.90;;;;;;4988567;28;20221;-82
2024/01/31 04:25:48;;;;;;;0.50;0.50;;;6.40;99.90;;;;;;4997259;28;20205;-81
2024/01/31 04:28:15;;;;;;;0.50;0.40;;;6.40;99.90;;;;;;4997278;28;20592;-82
2024/01/31 04:30:42;;;;;;;0.50;0.40;;;6.40;99.90;;;;;;4997249;28;20284;-81
2024/01/31 04:33:08;;;;;;;0.50;0.40;;;6.40;99.90;;;;;;4997595;28;20217;-84
2024/01/31 04:35:35;;;;;;;0.50;0.40;;;6.30;99.90;;;;;;4997518;28;20200;-82
2024/01/31 04:38:02;;;;;;;0.50;0.40;;;6.30;99.90;;;;;;4997369;28;20204;-84
2024/01/31 04:40:30;;;;;;;0.50;0.40;;;6.30;99.90;;;;;;4997729;28;20199;-81
2024/01/31 04:42:57;;;;;;;0.50;0.40;;;6.40;99.90;;;;;;4997468;28;20221;-82
2024/01/31 04:45:23;;;;;;;0.50;0.40;;;6.30;99.90;;;;;;4997195;28;20235;-82
2024/01/31 04:47:50;;;;;;;1.83;0.93;;;6.30;99.90;;;;;;4997121;28;20189;-79
2024/01/31 04:50:17;;;;;;;0.50;0.40;;;6.40;99.90;;;;;;4996480;28;20196;-82
2024/01/31 04:52:45;;;;;;;0.50;0.40;;;6.30;99.90;;;;;;4997453;28;20632;-81
2024/01/31 04:55:11;;;;;;;0.50;0.40;;;6.30;99.90;;;;;;4998806;28;20201;-82
2024/01/31 04:57:41;;;;;;;0.50;0.40;;;6.30;99.90;;;;;;4997664;28;20197;-82
2024/01/31 05:00:15;;;;;;;0.50;0.40;;;6.30;99.90;;;;;;4997042;28;20236;-82
2024/01/31 05:02:41;;;;;;;0.50;0.40;;;6.30;99.90;;;;;;4997428;28;20595;-81
2024/01/31 05:05:08;;;;;;;0.50;0.40;;;6.30;99.90;;;;;;4997497;28;20208;-80
2024/01/31 05:07:35;;;;;;;0.50;0.40;;;6.30;99.90;;;;;;4999432;28;20194;-81
2024/01/31 05:10:03;;;;;;;0.50;0.40;;;6.30;99.90;;;;;;4998178;28;20186;-80
2024/01/31 05:12:30;;;;;;;0.50;0.40;;;6.20;99.90;;;;;;5002587;28;20581;-82
2024/01/31 05:14:58;;;;;;;0.50;0.40;;;6.20;99.90;;;;;;5001262;28;20198;-81
2024/01/31 05:17:25;;;;;;;0.50;0.40;;;6.20;99.90;;;;;;5001265;28;20643;-80
2024/01/31 05:19:51;;;;;;;0.50;0.40;;;6.20;99.90;;;;;;4999689;28;20220;-81
2024/01/31 05:22:18;;;;;;;0.50;0.40;;;6.20;99.90;;;;;;5001296;28;20232;-81
2024/01/31 05:24:45;;;;;;;0.50;0.40;;;6.20;99.90;;;;;;5005780;28;20224;-81
2024/01/31 05:27:11;;;;;;;0.50;0.40;;;6.20;99.90;;;;;;5007170;28;20284;-81
2024/01/31 05:29:38;;;;;;;0.50;0.45;;;6.20;99.90;;;;;;5006518;28;20199;-82
2024/01/31 05:32:07;;;;;;;0.50;0.40;;;6.20;99.90;;;;;;5006725;28;20213;-81
2024/01/31 05:34:34;;;;;;;0.50;0.40;;;6.20;99.90;;;;;;5008071;28;20220;-81
2024/01/31 05:37:01;;;;;;;0.57;0.57;;;6.30;99.90;;;;;;5007201;28;20193;-81
2024/01/31 05:39:27;;;;;;;0.50;0.40;;;6.20;99.90;;;;;;5001119;28;20710;-80
2024/01/31 05:41:54;;;;;;;0.50;0.40;;;6.20;99.90;;;;;;5008770;28;20207;-79
2024/01/31 05:44:21;;;;;;;0.50;0.50;;;6.20;99.90;;;;;;5008952;28;20280;-82
2024/01/31 05:46:48;;;;;;;2.20;2.10;;;6.20;99.90;;;;;;5009384;28;20197;-81
2024/01/31 05:49:16;;;;;;;0.50;0.40;;;6.20;99.90;;;;;;5009558;28;20203;-81
2024/01/31 05:51:43;;;;;;;2.20;2.05;;;6.10;99.90;;;;;;5008680;28;20196;-80
2024/01/31 05:54:10;;;;;;;1.15;1.05;;;6.10;99.90;;;;;;5010640;28;20192;-81
2024/01/31 05:56:37;;;;;;;0.50;0.40;;;6.20;99.90;;;;;;5010068;28;20190;-82
2024/01/31 05:59:03;;;;;;;0.50;0.40;;;6.10;99.90;;;;;;5009021;28;20197;-80
2024/01/31 06:01:30;;;;;;;0.50;0.40;;;6.10;99.90;;;;;;5015344;28;20244;-82
2024/01/31 06:03:57;;;;;;;0.50;0.40;;;6.10;99.90;;;;;;5017426;28;20207;-81
2024/01/31 06:06:26;;;;;;;0.50;0.40;;;6.10;99.90;;;;;;5016299;28;20221;-81
2024/01/31 06:08:53;;;;;;;1.27;1.23;;;6.10;99.90;;;;;;5010078;28;20194;-80
2024/01/31 06:11:19;;;;;;;0.50;0.40;;;6.20;99.90;;;;;;5010610;28;20197;-81
2024/01/31 06:13:46;;;;;;;0.50;0.40;;;6.10;99.90;;;;;;5010567;28;20205;-79
2024/01/31 06:16:14;;;;;;;0.50;0.40;;;6.10;99.90;;;;;;5010506;28;20197;-82
2024/01/31 06:18:41;;;;;;;0.50;0.40;;;6.00;99.90;;;;;;5010982;28;20212;-81
2024/01/31 06:21:08;;;;;;;0.50;0.40;;;6.00;99.90;;;;;;5010074;28;20201;-81
2024/01/31 06:23:36;;;;;;;0.50;0.40;;;6.00;99.90;;;;;;5009882;28;20668;-81
2024/01/31 06:26:03;;;;;;;1.85;1.75;;;6.10;99.90;;;;;;5010267;28;20194;-81
2024/01/31 06:28:30;;;;;;;0.50;0.40;;;6.10;99.90;;;;;;5010415;28;20205;-81
2024/01/31 06:31:03;;;;;;;0.50;0.40;;;6.10;99.90;;;;;;5010315;28;20193;-79
2024/01/31 06:33:34;;;;;;;0.50;0.40;;;6.10;99.90;;;;;;5009970;28;20216;-81
2024/01/31 06:36:01;;;;;;;0.50;0.40;;;6.10;99.90;;;;;;5010182;28;20197;-82
2024/01/31 06:38:28;;;;;;;0.50;0.45;;;6.10;99.90;;;;;;5010112;28;20197;-82
2024/01/31 06:40:58;;;;;;;1.23;0.93;;;6.10;99.90;;;;;;5010700;28;20193;-82
2024/01/31 06:43:25;;;;;;;0.50;0.40;;;6.10;99.90;;;;;;5010141;28;20217;-82
2024/01/31 06:45:53;;;;;;;0.50;0.40;;;6.10;99.90;;;;;;5009917;28;20193;-83
2024/01/31 06:48:20;;;;;;;0.50;0.40;;;6.10;99.90;;;;;;5010134;28;20205;-82
2024/01/31 06:50:47;;;;;;;0.50;0.40;;;6.00;99.90;;;;;;5010611;28;20257;-80
2024/01/31 06:53:14;;;;;;;0.50;0.50;;;6.00;99.90;;;;;;5010173;28;20247;-82
2024/01/31 06:55:41;;;;;;;0.50;0.40;;;6.00;99.90;;;;;;5010482;28;20204;-83
2024/01/31 06:58:09;;;;;;;0.50;0.40;;;5.90;99.90;;;;;;5010518;28;20209;-82
2024/01/31 07:00:36;;;;;;;0.55;0.47;;;5.90;99.90;;;;;;5009280;28;20201;-82
2024/01/31 07:03:03;;;;;;;0.50;0.40;;;6.00;99.90;;;;;;5009292;28;20217;-81
2024/01/31 07:05:30;;;;;;;1.83;1.23;;;6.00;99.90;;;;;;5010078;28;20198;-85
2024/01/31 07:07:56;;;;;;;0.50;0.40;;;6.00;99.90;;;;;;5010141;28;20538;-84
2024/01/31 07:10:23;;;;;;;0.50;0.40;;;6.10;99.90;;;;;;5010408;28;20205;-84
2024/01/31 07:12:52;;;;;;;0.75;0.75;;;6.10;99.90;;;;;;5008654;28;20223;-84
2024/01/31 07:15:20;;;;;;;0.50;0.40;;;6.10;99.90;;;;;;5008701;28;20292;-84
2024/01/31 07:17:47;;;;;;;0.70;0.70;;;6.10;99.90;;;;;;5009045;28;20221;-85
2024/01/31 07:20:15;;;;;;;0.75;0.75;;;6.10;99.90;;;;;;5008144;28;20203;-84
2024/01/31 07:22:42;;;;;;;2.35;0.85;;;6.20;99.90;;;;;;5007245;28;20213;-84
2024/01/31 07:25:10;;;;;;;0.55;0.55;;;6.20;99.90;;;;;;5007764;28;20268;-83
2024/01/31 07:27:40;;;;;;;0.50;0.40;;;6.20;99.90;;;;;;5007323;28;20189;-85
2024/01/31 07:30:08;;;;;;;2.25;1.48;;;6.20;99.90;;;;;;5007142;28;20197;-85
2024/01/31 07:32:36;;;;;;;0.50;0.40;;;6.20;99.90;;;;;;5006458;28;20576;-85
2024/01/31 07:35:04;;;;;;;1.35;1.27;;;6.10;99.90;;;;;;5006218;28;20229;-85
2024/01/31 07:37:31;;;;;;;1.73;1.70;;;6.10;99.90;;;;;;5006762;28;20212;-86
2024/01/31 07:39:58;;;;;;;1.15;1.05;;;6.10;99.90;;;;;;5005898;28;20205;-85
2024/01/31 07:42:26;;;;;;;1.60;1.50;;;6.10;99.90;;;;;;5005781;28;20231;-86
2024/01/31 07:44:53;;;;;;;2.55;2.05;;;6.10;99.90;;;;;;5003965;28;20295;-85
2024/01/31 07:47:20;;;;;;;0.50;0.40;;;6.10;99.90;;;;;;5004596;28;20261;-85
2024/01/31 07:49:48;;;;;;;0.50;0.40;;;6.10;99.90;;;;;;5004311;28;20666;-85
2024/01/31 07:52:14;;;;;;;1.73;1.63;;;6.20;99.90;;;;;;5003851;28;20232;-84
2024/01/31 07:54:41;;;;;;;0.50;0.40;;;6.20;99.90;;;;;;5003418;28;20201;-85
2024/01/31 07:57:08;;;;;;;0.75;0.75;;;6.30;99.90;;;;;;5003482;28;20193;-85
2024/01/31 07:59:36;;;;;;;1.35;1.35;;;6.20;99.90;;;;;;5011500;28;20185;-84
2024/01/31 08:02:03;;;;;;;1.23;1.13;;;6.30;99.90;;;;;;5014868;28;20228;-83
2024/01/31 08:04:30;;;;;;;0.50;0.40;;;6.30;99.90;;;;;;4998092;28;20215;-82
2024/01/31 08:06:58;;;;;;;0.50;0.40;;;6.30;99.90;;;;;;4998683;28;20261;-81
2024/01/31 08:09:24;;;;;;;0.50;0.40;;;6.30;99.90;;;;;;4998177;28;20197;-82
2024/01/31 08:11:51;;;;;;;0.50;0.40;;;6.30;99.90;;;;;;4997153;28;20676;-84
2024/01/31 08:14:18;;;;;;;2.58;2.47;;;6.40;99.90;;;;;;4997259;28;20208;-84
2024/01/31 08:16:46;;;;;;;0.50;0.40;;;6.40;99.90;;;;;;4997582;28;20189;-84
2024/01/31 08:19:13;;;;;;;0.50;0.40;;;6.50;99.90;;;;;;4998050;28;20228;-85
2024/01/31 08:21:40;;;;;;;0.50;0.40;;;6.50;99.90;;;;;;4997809;28;20197;-84
2024/01/31 08:24:08;;;;;;;0.75;0.75;;;6.50;99.90;;;;;;4998684;28;20225;-85
2024/01/31 08:26:35;;;;;;;0.50;0.50;;;6.50;99.90;;;;;;4999439;28;20197;-84
2024/01/31 08:29:01;;;;;;;0.50;0.50;;;6.60;99.90;;;;;;4999396;28;20194;-85
2024/01/31 08:31:28;;;;;;;0.50;0.40;;;6.60;99.90;;;;;;4999471;28;20194;-83
2024/01/31 08:33:55;;;;;;;2.58;1.35;;;6.60;99.90;;;;;;5000981;28;20205;-84
2024/01/31 08:36:22;;;;;;;0.50;0.40;;;6.60;99.90;;;;;;4999668;28;20204;-85
2024/01/31 08:38:49;;;;;;;0.50;0.40;;;6.60;99.90;;;;;;5001662;28;20189;-85
2024/01/31 08:41:17;;;;;;;0.50;0.40;;;6.70;99.90;;;;;;5001941;28;20208;-85
2024/01/31 08:43:43;;;;;;;0.50;0.40;;;6.80;99.90;;;;;;4992632;28;20228;-86
2024/01/31 08:46:11;;;;;;;0.50;0.40;;;6.80;99.90;;;;;;5001672;28;20197;-85
2024/01/31 08:48:39;;;;;;;0.50;0.40;;;6.80;99.90;;;;;;5001409;28;20201;-85
2024/01/31 08:51:07;;;;;;;0.63;0.63;;;6.80;99.90;;;;;;4999439;28;20660;-83
2024/01/31 08:53:34;;;;;;;0.50;0.40;;;6.80;99.90;;;;;;4999402;28;20338;-83
2024/01/31 08:56:01;;;;;;;0.50;0.40;;;6.80;99.90;;;;;;4999196;28;20189;-85
2024/01/31 08:58:29;;;;;;;16.67;15.98;;;6.80;99.90;;;;;;4999678;28;20212;-86
2024/01/31 09:00:56;;;;;;;0.50;0.40;;;6.90;99.90;;;;;;5000072;28;20201;-86
2024/01/31 09:03:23;;;;;;;2.58;1.85;;;6.90;99.90;;;;;;4999221;28;20213;-84
2024/01/31 09:05:50;;;;;;;0.50;0.40;;;6.90;99.90;;;;;;5000009;28;20216;-84
2024/01/31 09:08:16;;;;;;;0.50;0.50;;;6.90;99.90;;;;;;4999433;28;20200;-86
2024/01/31 09:10:45;;;;;;;0.50;0.40;;;7.00;99.90;;;;;;4999351;28;20197;-84
2024/01/31 09:13:11;;;;;;;0.50;0.40;;;7.00;99.90;;;;;;5010948;28;20281;-86
2024/01/31 09:15:39;;;;;;;0.60;0.50;;;7.00;99.90;;;;;;5010136;28;20256;-85
2024/01/31 09:18:06;;;;;;;0.50;0.40;;;7.00;99.90;;;;;;5004835;28;20203;-85
2024/01/31 09:20:33;;;;;;;0.50;0.40;;;7.00;99.90;;;;;;5005979;28;20269;-84
2024/01/31 09:23:00;;;;;;;0.50;0.40;;;7.00;99.90;;;;;;5007634;28;20219;-84
2024/01/31 09:25:27;;;;;;;0.50;0.40;;;6.90;99.90;;;;;;5009148;28;20584;-85
2024/01/31 09:27:53;;;;;;;0.63;0.55;;;6.90;99.90;;;;;;5003895;28;20197;-83
2024/01/31 09:30:20;;;;;;;0.70;0.70;;;6.90;99.90;;;;;;5008445;28;20201;-84
2024/01/31 09:32:48;;;;;;;0.50;0.40;;;6.80;99.90;;;;;;5005708;28;20217;-83
2024/01/31 09:35:15;;;;;;;9.88;1.23;;;6.90;99.90;;;;;;5008802;28;20208;-85
2024/01/31 09:37:42;;;;;;;0.75;0.75;;;6.90;99.90;;;;;;5005463;28;20196;-84
2024/01/31 09:40:14;;;;;;;0.50;0.40;;;6.90;99.90;;;;;;5001878;28;20207;-85
2024/01/31 09:42:41;;;;;;;0.70;0.68;;;6.90;99.90;;;;;;4997636;28;20224;-86
2024/01/31 09:45:11;;;;;;;0.70;0.50;;;6.90;99.90;;;;;;4997941;28;20587;-85
2024/01/31 09:47:40;;;;;;;0.50;0.40;;;6.90;99.90;;;;;;4998628;28;20208;-85
2024/01/31 09:50:09;;;;;;;0.50;0.40;;;6.90;99.90;;;;;;4998358;28;20197;-84
2024/01/31 09:52:39;;;;;;;1.13;1.13;;;6.90;99.90;;;;;;4997609;28;20229;-85
2024/01/31 09:55:10;;;;;;;0.50;0.40;;;7.00;99.90;;;;;;5001341;28;20197;-85
2024/01/31 09:57:37;;;;;;;4.30;2.80;;;6.90;99.90;;;;;;5011541;28;20189;-84
2024/01/31 10:00:05;;;;;;;0.50;0.40;;;6.80;99.90;;;;;;5012169;28;20197;-84
2024/01/31 10:02:32;;;;;;;0.50;0.40;;;6.80;99.90;;;;;;5008915;28;20221;-83
2024/01/31 10:04:59;;;;;;;0.73;0.73;;;6.80;99.90;;;;;;5009199;28;20227;-84
2024/01/31 10:07:30;;;;;;;0.50;0.40;;;6.70;99.90;;;;;;5009877;28;20276;-83
2024/01/31 10:09:58;;;;;;;0.50;0.40;;;6.70;99.90;;;;;;5001432;28;20224;-85
2024/01/31 10:12:24;;;;;;;0.75;0.75;;;6.70;99.90;;;;;;4998424;28;20221;-84
2024/01/31 10:14:52;;;;;;;2.15;2.05;;;6.70;99.90;;;;;;4998843;28;20193;-85
2024/01/31 10:17:21;;;;;;;0.50;0.40;;;6.80;99.90;;;;;;4997967;28;20693;-86
2024/01/31 10:19:48;;;;;;;0.50;0.40;;;6.80;99.90;;;;;;4998190;28;20216;-85
2024/01/31 10:22:15;;;;;;;0.52;0.40;;;6.90;99.90;;;;;;4997271;28;20225;-85
2024/01/31 10:24:46;;;;;;;0.50;0.40;;;6.90;99.90;;;;;;4997783;28;20223;-85
2024/01/31 10:27:14;;;;;;;0.50;0.40;;;7.00;99.90;;;;;;4997853;28;20216;-86
2024/01/31 10:29:41;;;;;;;0.50;0.50;;;7.00;99.90;;;;;;4997789;28;20720;-85
2024/01/31 10:32:08;;;;;;;1.95;0.77;;;7.00;99.90;;;;;;4997630;28;20213;-85
2024/01/31 10:34:35;;;;;;;0.50;0.40;;;7.10;99.90;;;;;;4997498;28;20193;-85
2024/01/31 10:37:02;;;;;;;1.50;1.40;;;7.20;99.90;;;;;;4998275;28;20201;-85
2024/01/31 10:39:29;;;;;;;0.50;0.40;;;7.20;99.90;;;;;;4998573;28;20224;-84
2024/01/31 10:42:01;;;;;;;1.00;1.00;;;7.10;99.90;;;;;;5001635;28;20193;-83
2024/01/31 10:44:29;;;;;;;0.50;0.40;;;7.10;99.90;;;;;;5001847;28;20197;-84
2024/01/31 10:46:55;;;;;;;0.50;0.40;;;7.00;99.90;;;;;;5001565;28;20198;-84
2024/01/31 10:49:22;;;;;;;0.52;0.52;;;7.10;99.90;;;;;;5001245;28;20207;-84
2024/01/31 10:51:53;;;;;;;0.50;0.40;;;7.20;99.90;;;;;;5000543;28;20197;-84
2024/01/31 10:54:24;;;;;;;3.28;1.13;;;7.30;99.90;;;;;;5001841;28;20219;-86
2024/01/31 10:56:52;;;;;;;9.82;2.45;;;7.40;99.90;;;;;;5002098;28;20194;-84
2024/01/31 10:59:20;;;;;;;1.70;1.60;;;7.50;99.90;;;;;;5001005;28;20208;-85
2024/01/31 11:01:58;;;;;;;1.13;0.85;;;7.40;99.90;;;;;;5001435;28;20205;-83
2024/01/31 11:04:26;;;;;;;0.73;0.73;;;7.40;99.90;;;;;;5001154;28;20204;-85
2024/01/31 11:06:53;;;;;;;2.83;1.95;;;7.50;99.90;;;;;;5001746;28;20197;-84
2024/01/31 11:09:23;;;;;;;0.85;0.85;;;7.50;99.90;;;;;;5001795;28;20217;-85
2024/01/31 11:12:04;;;;;;;0.50;0.40;;;7.60;99.90;;;;;;5001172;28;20223;-85
2024/01/31 11:14:33;;;;;;;0.80;0.80;;;7.60;99.90;;;;;;5001327;28;20240;-85
2024/01/31 11:17:08;;;;;;;1.90;1.80;;;7.50;99.90;;;;;;4993578;28;20190;-84
2024/01/31 11:19:38;;;;;;;0.50;0.50;;;7.40;99.90;;;;;;5001684;28;20200;-84
2024/01/31 11:22:06;;;;;;;0.57;0.57;;;7.50;99.90;;;;;;5000824;28;20205;-84
2024/01/31 11:24:33;;;;;;;3.45;2.40;;;7.50;99.90;;;;;;5000645;28;20194;-84
2024/01/31 11:27:01;;;;;;;2.55;1.92;;;7.50;99.90;;;;;;5001671;28;20200;-84
2024/01/31 11:29:29;;;;;;;0.60;0.60;;;7.50;99.90;;;;;;5000787;28;20201;-84
2024/01/31 11:31:58;;;;;;;0.50;0.50;;;7.60;99.90;;;;;;5001193;28;20193;-84
2024/01/31 11:34:26;;;;;;;1.35;1.02;;;7.60;99.90;;;;;;5001029;28;20197;-85
2024/01/31 11:36:53;;;;;;;3.90;2.25;;;7.50;99.90;;;;;;5000283;28;20821;-82
2024/01/31 11:39:20;;;;;;;0.82;0.82;;;7.50;99.90;;;;;;4999452;28;20564;-83
2024/01/31 11:41:46;;;;;;;0.50;0.50;;;7.40;99.90;;;;;;4999362;28;20193;-81
2024/01/31 11:44:14;;;;;;;2.35;2.15;;;7.50;99.90;;;;;;4998920;28;20284;-84
2024/01/31 11:46:40;;;;;;;1.50;1.13;;;7.50;99.90;;;;;;4999333;28;20221;-85
2024/01/31 11:49:10;;;;;;;0.80;0.77;;;7.50;99.90;;;;;;4999343;28;20197;-85
2024/01/31 11:51:37;;;;;;;0.90;0.90;;;7.50;99.90;;;;;;4999410;28;20212;-84
2024/01/31 11:54:04;;;;;;;0.50;0.40;;;7.60;99.90;;;;;;5000810;28;20220;-85
2024/01/31 11:56:31;;;;;;;4.20;2.20;;;7.60;99.90;;;;;;4999487;28;20189;-84
2024/01/31 11:58:59;;;;;;;0.50;0.40;;;7.60;99.90;;;;;;4999016;28;20205;-85
2024/01/31 12:01:27;;;;;;;3.88;3.50;;;7.70;99.90;;;;;;4998784;28;20204;-84
2024/01/31 12:03:54;;;;;;;1.45;1.35;;;7.70;99.90;;;;;;4998962;28;20305;-84
2024/01/31 12:06:22;;;;;;;1.75;1.75;;;7.70;99.90;;;;;;4998405;28;20213;-83
2024/01/31 12:08:50;;;;;;;6.28;1.50;;;7.70;99.90;;;;;;4998385;28;20235;-84
2024/01/31 12:11:17;;;;;;;1.65;1.52;;;7.70;99.90;;;;;;4999121;28;20211;-84
2024/01/31 12:13:45;;;;;;;1.27;1.17;;;7.70;99.90;;;;;;5000199;28;20726;-85
2024/01/31 12:16:12;;;;;;;2.35;2.15;;;7.70;99.90;;;;;;4999185;28;20200;-84
2024/01/31 12:18:40;;;;;;;0.65;0.65;;;7.70;99.90;;;;;;4998942;28;20233;-85
2024/01/31 12:21:10;;;;;;;8.77;5.10;;;7.80;99.90;;;;;;4999061;28;20201;-84
2024/01/31 12:23:38;;;;;;;3.35;1.70;;;7.80;99.90;;;;;;4999793;28;20221;-84
2024/01/31 12:26:07;;;;;;;0.50;0.50;;;7.80;99.90;;;;;;4999778;28;20308;-85
2024/01/31 12:28:33;;;;;;;1.95;1.42;;;7.80;99.90;;;;;;4999865;28;20197;-85
2024/01/31 12:31:00;;;;;;;0.77;0.77;;;7.90;99.90;;;;;;4999303;28;20193;-83
2024/01/31 12:33:27;;;;;;;0.70;0.70;;;8.00;99.90;;;;;;4999106;28;20217;-82
2024/01/31 12:35:54;;;;;;;1.10;1.00;;;8.00;99.90;;;;;;4999664;28;20204;-84
2024/01/31 12:38:20;;;;;;;0.50;0.40;;;8.00;99.90;;;;;;4999136;28;20224;-85
2024/01/31 12:40:51;;;;;;;0.50;0.50;;;7.90;99.90;;;;;;4998811;28;20296;-83
2024/01/31 12:43:20;;;;;;;6.68;3.90;;;7.90;99.90;;;;;;4998472;28;20702;-85
2024/01/31 12:45:47;;;;;;;2.17;1.90;;;7.90;99.90;;;;;;4998954;28;20217;-85
2024/01/31 12:48:13;;;;;;;16.88;2.85;;;7.90;99.90;;;;;;4998974;28;20201;-85
2024/01/31 12:50:40;;;;;;;3.97;3.05;;;7.90;99.90;;;;;;4999845;28;20197;-83
2024/01/31 12:53:07;;;;;;;3.70;2.97;;;7.80;99.90;;;;;;4998263;28;20217;-85
2024/01/31 12:55:33;;;;;;;0.50;0.50;;;7.70;99.90;;;;;;4999644;28;20200;-84
2024/01/31 12:58:02;;;;;;;0.85;0.85;;;7.70;99.90;;;;;;4998961;28;20217;-85